sensor_id;sensor_type;location;lat;lon;timestamp;P1;durP1;ratioP1;P2;durP2;ratioP2
76125;SDS011;65174;48.138;21.002;2022-12-18T00:00:07;39.50;;;15.88;;
76125;SDS011;65174;48.138;21.002;2022-12-18T00:03:15;37.85;;;15.48;;
76125;SDS011;65174;48.138;21.002;2022-12-18T00:06:18;41.72;;;15.18;;
76125;SDS011;65174;48.138;21.002;2022-12-18T00:09:21;31.13;;;14.50;;
76125;SDS011;65174;48.138;21.002;2022-12-18T00:12:25;37.00;;;14.60;;
76125;SDS011;65174;48.138;21.002;2022-12-18T00:15:27;36.15;;;15.05;;
76125;SDS011;65174;48.138;21.002;2022-12-18T00:18:29;36.85;;;14.57;;
76125;SDS011;65174;48.138;21.002;2022-12-18T00:21:31;38.88;;;16.60;;
76125;SDS011;65174;48.138;21.002;2022-12-18T00:24:33;38.73;;;16.37;;
76125;SDS011;65174;48.138;21.002;2022-12-18T00:27:36;41.13;;;16.63;;
76125;SDS011;65174;48.138;21.002;2022-12-18T00:30:38;38.15;;;15.82;;
76125;SDS011;65174;48.138;21.002;2022-12-18T00:33:41;50.88;;;18.30;;
76125;SDS011;65174;48.138;21.002;2022-12-18T00:36:46;39.42;;;17.02;;
76125;SDS011;65174;48.138;21.002;2022-12-18T00:39:49;41.77;;;16.93;;
76125;SDS011;65174;48.138;21.002;2022-12-18T00:42:53;42.90;;;17.88;;
76125;SDS011;65174;48.138;21.002;2022-12-18T00:45:57;41.53;;;17.33;;
76125;SDS011;65174;48.138;21.002;2022-12-18T00:48:59;40.55;;;16.70;;
76125;SDS011;65174;48.138;21.002;2022-12-18T00:52:01;37.40;;;15.68;;
76125;SDS011;65174;48.138;21.002;2022-12-18T00:55:03;35.13;;;14.70;;
76125;SDS011;65174;48.138;21.002;2022-12-18T00:58:07;34.88;;;14.60;;
76125;SDS011;65174;48.138;21.002;2022-12-18T01:01:10;38.15;;;15.68;;
76125;SDS011;65174;48.138;21.002;2022-12-18T01:04:12;36.33;;;14.18;;
76125;SDS011;65174;48.138;21.002;2022-12-18T01:07:14;36.15;;;15.73;;
76125;SDS011;65174;48.138;21.002;2022-12-18T01:10:18;35.27;;;15.27;;
76125;SDS011;65174;48.138;21.002;2022-12-18T01:13:20;33.72;;;13.00;;
76125;SDS011;65174;48.138;21.002;2022-12-18T01:16:24;32.17;;;12.93;;
76125;SDS011;65174;48.138;21.002;2022-12-18T01:19:26;30.98;;;13.07;;
76125;SDS011;65174;48.138;21.002;2022-12-18T01:22:28;32.80;;;12.95;;
76125;SDS011;65174;48.138;21.002;2022-12-18T01:25:30;31.80;;;12.47;;
76125;SDS011;65174;48.138;21.002;2022-12-18T01:28:32;40.10;;;14.43;;
76125;SDS011;65174;48.138;21.002;2022-12-18T01:31:36;51.28;;;16.83;;
76125;SDS011;65174;48.138;21.002;2022-12-18T01:34:38;38.60;;;13.13;;
76125;SDS011;65174;48.138;21.002;2022-12-18T01:37:40;35.13;;;13.90;;
76125;SDS011;65174;48.138;21.002;2022-12-18T01:40:41;66.73;;;19.97;;
76125;SDS011;65174;48.138;21.002;2022-12-18T01:46:58;41.03;;;14.43;;
76125;SDS011;65174;48.138;21.002;2022-12-18T01:50:01;37.08;;;14.48;;
76125;SDS011;65174;48.138;21.002;2022-12-18T01:53:14;37.50;;;14.75;;
76125;SDS011;65174;48.138;21.002;2022-12-18T01:56:19;33.93;;;13.73;;
76125;SDS011;65174;48.138;21.002;2022-12-18T01:59:23;36.40;;;14.73;;
76125;SDS011;65174;48.138;21.002;2022-12-18T02:02:25;32.55;;;13.63;;
76125;SDS011;65174;48.138;21.002;2022-12-18T02:09:20;32.20;;;13.38;;
76125;SDS011;65174;48.138;21.002;2022-12-18T02:12:42;38.10;;;13.30;;
76125;SDS011;65174;48.138;21.002;2022-12-18T02:22:26;32.22;;;13.13;;
76125;SDS011;65174;48.138;21.002;2022-12-18T02:29:27;30.87;;;12.03;;
76125;SDS011;65174;48.138;21.002;2022-12-18T02:32:37;29.60;;;11.13;;
76125;SDS011;65174;48.138;21.002;2022-12-18T02:35:42;27.33;;;11.30;;
76125;SDS011;65174;48.138;21.002;2022-12-18T02:38:46;32.40;;;12.65;;
76125;SDS011;65174;48.138;21.002;2022-12-18T02:41:50;29.45;;;12.63;;
76125;SDS011;65174;48.138;21.002;2022-12-18T02:44:56;25.73;;;11.60;;
76125;SDS011;65174;48.138;21.002;2022-12-18T02:47:59;26.17;;;11.38;;
76125;SDS011;65174;48.138;21.002;2022-12-18T02:52:45;28.73;;;12.07;;
76125;SDS011;65174;48.138;21.002;2022-12-18T02:57:05;26.75;;;11.15;;
76125;SDS011;65174;48.138;21.002;2022-12-18T03:01:50;30.88;;;12.88;;
76125;SDS011;65174;48.138;21.002;2022-12-18T03:06:40;28.50;;;12.53;;
76125;SDS011;65174;48.138;21.002;2022-12-18T03:11:14;28.90;;;12.02;;
76125;SDS011;65174;48.138;21.002;2022-12-18T03:15:52;30.58;;;11.98;;
76125;SDS011;65174;48.138;21.002;2022-12-18T03:20:27;32.75;;;13.32;;
76125;SDS011;65174;48.138;21.002;2022-12-18T03:25:03;34.38;;;12.32;;
76125;SDS011;65174;48.138;21.002;2022-12-18T03:29:40;35.23;;;13.67;;
76125;SDS011;65174;48.138;21.002;2022-12-18T03:34:17;32.42;;;12.35;;
76125;SDS011;65174;48.138;21.002;2022-12-18T03:38:52;28.60;;;12.15;;
76125;SDS011;65174;48.138;21.002;2022-12-18T03:47:29;33.30;;;14.05;;
76125;SDS011;65174;48.138;21.002;2022-12-18T03:52:24;35.60;;;13.67;;
76125;SDS011;65174;48.138;21.002;2022-12-18T03:56:58;32.28;;;13.10;;
76125;SDS011;65174;48.138;21.002;2022-12-18T04:00:08;40.92;;;15.18;;
76125;SDS011;65174;48.138;21.002;2022-12-18T04:03:14;32.50;;;12.98;;
76125;SDS011;65174;48.138;21.002;2022-12-18T04:06:27;31.52;;;14.02;;
76125;SDS011;65174;48.138;21.002;2022-12-18T04:09:31;37.20;;;14.37;;
76125;SDS011;65174;48.138;21.002;2022-12-18T04:12:36;33.65;;;15.43;;
76125;SDS011;65174;48.138;21.002;2022-12-18T04:15:39;36.13;;;15.27;;
76125;SDS011;65174;48.138;21.002;2022-12-18T04:18:46;35.72;;;15.60;;
76125;SDS011;65174;48.138;21.002;2022-12-18T04:21:55;38.28;;;15.32;;
76125;SDS011;65174;48.138;21.002;2022-12-18T04:24:57;37.40;;;15.27;;
76125;SDS011;65174;48.138;21.002;2022-12-18T04:28:05;32.38;;;13.93;;
76125;SDS011;65174;48.138;21.002;2022-12-18T04:31:09;37.35;;;15.57;;
76125;SDS011;65174;48.138;21.002;2022-12-18T04:34:11;37.25;;;15.95;;
76125;SDS011;65174;48.138;21.002;2022-12-18T04:38:46;41.97;;;14.88;;
76125;SDS011;65174;48.138;21.002;2022-12-18T04:43:31;33.53;;;14.03;;
76125;SDS011;65174;48.138;21.002;2022-12-18T04:48:06;30.17;;;14.18;;
76125;SDS011;65174;48.138;21.002;2022-12-18T04:52:42;38.40;;;15.77;;
76125;SDS011;65174;48.138;21.002;2022-12-18T04:57:17;36.83;;;14.88;;
76125;SDS011;65174;48.138;21.002;2022-12-18T05:01:53;36.05;;;16.48;;
76125;SDS011;65174;48.138;21.002;2022-12-18T05:06:28;31.33;;;13.67;;
76125;SDS011;65174;48.138;21.002;2022-12-18T05:10:18;33.88;;;13.50;;
76125;SDS011;65174;48.138;21.002;2022-12-18T05:13:20;37.28;;;15.90;;
76125;SDS011;65174;48.138;21.002;2022-12-18T05:16:21;36.67;;;15.35;;
76125;SDS011;65174;48.138;21.002;2022-12-18T05:19:23;40.28;;;14.88;;
76125;SDS011;65174;48.138;21.002;2022-12-18T05:22:25;32.97;;;14.60;;
76125;SDS011;65174;48.138;21.002;2022-12-18T05:25:27;37.08;;;15.63;;
76125;SDS011;65174;48.138;21.002;2022-12-18T05:28:30;37.80;;;15.85;;
76125;SDS011;65174;48.138;21.002;2022-12-18T05:31:34;37.40;;;15.98;;
76125;SDS011;65174;48.138;21.002;2022-12-18T05:34:40;34.55;;;14.93;;
76125;SDS011;65174;48.138;21.002;2022-12-18T05:37:42;47.60;;;18.53;;
76125;SDS011;65174;48.138;21.002;2022-12-18T05:40:44;43.10;;;17.17;;
76125;SDS011;65174;48.138;21.002;2022-12-18T05:43:46;42.67;;;18.15;;
76125;SDS011;65174;48.138;21.002;2022-12-18T05:46:48;38.25;;;16.35;;
76125;SDS011;65174;48.138;21.002;2022-12-18T05:49:50;41.50;;;16.80;;
76125;SDS011;65174;48.138;21.002;2022-12-18T05:52:52;40.20;;;15.53;;
76125;SDS011;65174;48.138;21.002;2022-12-18T05:55:54;37.35;;;15.52;;
76125;SDS011;65174;48.138;21.002;2022-12-18T05:59:01;40.78;;;16.15;;
76125;SDS011;65174;48.138;21.002;2022-12-18T06:02:03;44.47;;;16.50;;
76125;SDS011;65174;48.138;21.002;2022-12-18T06:05:05;39.97;;;15.98;;
76125;SDS011;65174;48.138;21.002;2022-12-18T06:08:08;30.13;;;10.63;;
76125;SDS011;65174;48.138;21.002;2022-12-18T06:11:10;42.88;;;16.85;;
76125;SDS011;65174;48.138;21.002;2022-12-18T06:14:13;44.45;;;17.85;;
76125;SDS011;65174;48.138;21.002;2022-12-18T06:17:15;41.47;;;15.13;;
76125;SDS011;65174;48.138;21.002;2022-12-18T06:20:16;36.20;;;14.45;;
76125;SDS011;65174;48.138;21.002;2022-12-18T06:24:52;42.70;;;16.73;;
76125;SDS011;65174;48.138;21.002;2022-12-18T06:29:27;47.75;;;18.90;;
76125;SDS011;65174;48.138;21.002;2022-12-18T06:34:03;39.60;;;14.07;;
76125;SDS011;65174;48.138;21.002;2022-12-18T06:38:40;51.13;;;18.00;;
76125;SDS011;65174;48.138;21.002;2022-12-18T06:43:14;58.83;;;21.95;;
76125;SDS011;65174;48.138;21.002;2022-12-18T06:47:49;54.33;;;17.93;;
76125;SDS011;65174;48.138;21.002;2022-12-18T06:52:25;29.75;;;12.70;;
76125;SDS011;65174;48.138;21.002;2022-12-18T06:57:00;30.98;;;12.15;;
76125;SDS011;65174;48.138;21.002;2022-12-18T07:01:35;44.05;;;15.90;;
76125;SDS011;65174;48.138;21.002;2022-12-18T07:06:14;48.38;;;17.98;;
76125;SDS011;65174;48.138;21.002;2022-12-18T07:10:46;50.63;;;17.40;;
76125;SDS011;65174;48.138;21.002;2022-12-18T07:15:22;36.80;;;14.52;;
76125;SDS011;65174;48.138;21.002;2022-12-18T07:19:57;51.05;;;16.58;;
76125;SDS011;65174;48.138;21.002;2022-12-18T07:24:33;43.53;;;16.13;;
76125;SDS011;65174;48.138;21.002;2022-12-18T08:13:07;33.80;;;12.82;;
76125;SDS011;65174;48.138;21.002;2022-12-18T08:25:25;61.07;;;21.47;;
76125;SDS011;65174;48.138;21.002;2022-12-18T08:45:31;50.90;;;17.70;;
76125;SDS011;65174;48.138;21.002;2022-12-18T09:52:47;37.30;;;13.38;;
76125;SDS011;65174;48.138;21.002;2022-12-18T09:55:54;46.75;;;17.17;;
76125;SDS011;65174;48.138;21.002;2022-12-18T09:58:58;47.77;;;16.43;;
76125;SDS011;65174;48.138;21.002;2022-12-18T10:02:12;53.20;;;17.30;;
76125;SDS011;65174;48.138;21.002;2022-12-18T10:05:17;61.85;;;20.95;;
76125;SDS011;65174;48.138;21.002;2022-12-18T10:12:02;59.25;;;17.80;;
76125;SDS011;65174;48.138;21.002;2022-12-18T10:15:30;55.17;;;17.25;;
76125;SDS011;65174;48.138;21.002;2022-12-18T10:21:51;66.90;;;18.02;;
76125;SDS011;65174;48.138;21.002;2022-12-18T10:25:32;55.72;;;19.52;;
76125;SDS011;65174;48.138;21.002;2022-12-18T10:30:17;55.22;;;17.75;;
76125;SDS011;65174;48.138;21.002;2022-12-18T10:34:52;51.03;;;20.03;;
76125;SDS011;65174;48.138;21.002;2022-12-18T10:39:27;51.70;;;18.20;;
76125;SDS011;65174;48.138;21.002;2022-12-18T10:48:25;53.50;;;19.13;;
76125;SDS011;65174;48.138;21.002;2022-12-18T10:52:43;41.10;;;13.45;;
76125;SDS011;65174;48.138;21.002;2022-12-18T11:05:27;56.90;;;20.05;;
76125;SDS011;65174;48.138;21.002;2022-12-18T11:08:38;51.50;;;17.15;;
76125;SDS011;65174;48.138;21.002;2022-12-18T11:11:42;49.30;;;16.90;;
76125;SDS011;65174;48.138;21.002;2022-12-18T11:14:51;52.03;;;18.10;;
76125;SDS011;65174;48.138;21.002;2022-12-18T11:17:54;54.03;;;17.57;;
76125;SDS011;65174;48.138;21.002;2022-12-18T11:21:06;55.08;;;19.10;;
76125;SDS011;65174;48.138;21.002;2022-12-18T11:24:23;51.88;;;18.85;;
76125;SDS011;65174;48.138;21.002;2022-12-18T11:27:31;51.92;;;17.98;;
76125;SDS011;65174;48.138;21.002;2022-12-18T11:30:35;50.50;;;18.53;;
76125;SDS011;65174;48.138;21.002;2022-12-18T11:33:39;53.53;;;18.50;;
76125;SDS011;65174;48.138;21.002;2022-12-18T11:37:04;58.65;;;19.35;;
76125;SDS011;65174;48.138;21.002;2022-12-18T11:41:47;51.92;;;17.30;;
76125;SDS011;65174;48.138;21.002;2022-12-18T11:51:09;51.60;;;18.23;;
76125;SDS011;65174;48.138;21.002;2022-12-18T11:55:50;55.00;;;17.90;;
76125;SDS011;65174;48.138;21.002;2022-12-18T12:00:22;54.90;;;19.15;;
76125;SDS011;65174;48.138;21.002;2022-12-18T12:05:17;59.78;;;19.67;;
76125;SDS011;65174;48.138;21.002;2022-12-18T12:09:37;65.85;;;22.33;;
76125;SDS011;65174;48.138;21.002;2022-12-18T12:18:59;59.00;;;19.43;;
76125;SDS011;65174;48.138;21.002;2022-12-18T12:28:13;42.30;;;15.00;;
76125;SDS011;65174;48.138;21.002;2022-12-18T12:41:00;54.27;;;19.80;;
76125;SDS011;65174;48.138;21.002;2022-12-18T12:45:37;59.58;;;20.25;;
76125;SDS011;65174;48.138;21.002;2022-12-18T12:50:23;49.38;;;16.00;;
76125;SDS011;65174;48.138;21.002;2022-12-18T12:54:59;53.30;;;17.42;;
76125;SDS011;65174;48.138;21.002;2022-12-18T13:08:31;54.33;;;18.58;;
76125;SDS011;65174;48.138;21.002;2022-12-18T13:23:32;47.80;;;18.03;;
76125;SDS011;65174;48.138;21.002;2022-12-18T13:26:38;50.47;;;18.33;;
76125;SDS011;65174;48.138;21.002;2022-12-18T13:29:40;53.85;;;18.33;;
76125;SDS011;65174;48.138;21.002;2022-12-18T13:32:48;53.72;;;18.83;;
76125;SDS011;65174;48.138;21.002;2022-12-18T13:36:00;50.10;;;18.27;;
76125;SDS011;65174;48.138;21.002;2022-12-18T13:39:31;51.53;;;17.77;;
76125;SDS011;65174;48.138;21.002;2022-12-18T13:42:39;52.17;;;18.40;;
76125;SDS011;65174;48.138;21.002;2022-12-18T13:46:04;58.47;;;20.67;;
76125;SDS011;65174;48.138;21.002;2022-12-18T13:49:37;56.60;;;21.52;;
76125;SDS011;65174;48.138;21.002;2022-12-18T13:52:41;65.68;;;21.23;;
76125;SDS011;65174;48.138;21.002;2022-12-18T13:55:45;58.53;;;19.67;;
76125;SDS011;65174;48.138;21.002;2022-12-18T13:59:03;61.10;;;21.53;;
76125;SDS011;65174;48.138;21.002;2022-12-18T14:02:26;57.08;;;19.48;;
76125;SDS011;65174;48.138;21.002;2022-12-18T14:05:30;58.33;;;20.50;;
76125;SDS011;65174;48.138;21.002;2022-12-18T14:08:36;61.30;;;20.98;;
76125;SDS011;65174;48.138;21.002;2022-12-18T14:11:45;51.73;;;18.07;;
76125;SDS011;65174;48.138;21.002;2022-12-18T14:14:50;50.60;;;17.57;;
76125;SDS011;65174;48.138;21.002;2022-12-18T14:21:39;79.60;;;25.50;;
76125;SDS011;65174;48.138;21.002;2022-12-18T14:24:42;78.25;;;25.42;;
76125;SDS011;65174;48.138;21.002;2022-12-18T14:27:45;78.47;;;24.08;;
76125;SDS011;65174;48.138;21.002;2022-12-18T14:31:16;56.77;;;20.50;;
76125;SDS011;65174;48.138;21.002;2022-12-18T14:34:19;70.05;;;24.75;;
76125;SDS011;65174;48.138;21.002;2022-12-18T14:37:28;96.25;;;35.08;;
76125;SDS011;65174;48.138;21.002;2022-12-18T14:40:30;131.93;;;52.40;;
76125;SDS011;65174;48.138;21.002;2022-12-18T14:43:33;92.20;;;36.67;;
76125;SDS011;65174;48.138;21.002;2022-12-18T14:46:38;65.10;;;23.67;;
76125;SDS011;65174;48.138;21.002;2022-12-18T14:49:41;57.67;;;20.15;;
76125;SDS011;65174;48.138;21.002;2022-12-18T14:52:44;56.70;;;20.00;;
76125;SDS011;65174;48.138;21.002;2022-12-18T14:55:46;52.83;;;18.70;;
76125;SDS011;65174;48.138;21.002;2022-12-18T15:05:27;46.35;;;16.45;;
76125;SDS011;65174;48.138;21.002;2022-12-18T15:08:36;48.40;;;18.08;;
76125;SDS011;65174;48.138;21.002;2022-12-18T15:14:43;53.33;;;20.30;;
76125;SDS011;65174;48.138;21.002;2022-12-18T15:17:45;52.60;;;18.93;;
76125;SDS011;65174;48.138;21.002;2022-12-18T15:23:54;39.35;;;14.63;;
76125;SDS011;65174;48.138;21.002;2022-12-18T15:26:57;61.50;;;21.27;;
76125;SDS011;65174;48.138;21.002;2022-12-18T15:33:23;54.77;;;20.00;;
76125;SDS011;65174;48.138;21.002;2022-12-18T15:36:27;56.47;;;19.58;;
76125;SDS011;65174;48.138;21.002;2022-12-18T15:39:29;77.40;;;25.95;;
76125;SDS011;65174;48.138;21.002;2022-12-18T15:42:32;55.95;;;20.25;;
76125;SDS011;65174;48.138;21.002;2022-12-18T15:45:52;45.20;;;16.33;;
76125;SDS011;65174;48.138;21.002;2022-12-18T15:48:55;51.23;;;18.87;;
76125;SDS011;65174;48.138;21.002;2022-12-18T15:52:03;56.70;;;19.90;;
76125;SDS011;65174;48.138;21.002;2022-12-18T15:55:08;46.50;;;16.35;;
76125;SDS011;65174;48.138;21.002;2022-12-18T15:58:33;52.85;;;17.75;;
76125;SDS011;65174;48.138;21.002;2022-12-18T16:01:36;45.13;;;15.53;;
76125;SDS011;65174;48.138;21.002;2022-12-18T16:04:44;53.70;;;18.30;;
76125;SDS011;65174;48.138;21.002;2022-12-18T16:07:47;57.13;;;21.42;;
76125;SDS011;65174;48.138;21.002;2022-12-18T16:10:49;58.45;;;21.20;;
76125;SDS011;65174;48.138;21.002;2022-12-18T16:13:51;67.85;;;24.98;;
76125;SDS011;65174;48.138;21.002;2022-12-18T16:16:55;63.60;;;23.07;;
76125;SDS011;65174;48.138;21.002;2022-12-18T16:20:03;74.70;;;23.13;;
76125;SDS011;65174;48.138;21.002;2022-12-18T16:23:05;68.10;;;24.02;;
76125;SDS011;65174;48.138;21.002;2022-12-18T16:26:08;60.20;;;23.00;;
76125;SDS011;65174;48.138;21.002;2022-12-18T16:29:10;61.40;;;21.05;;
76125;SDS011;65174;48.138;21.002;2022-12-18T16:32:15;65.70;;;22.07;;
76125;SDS011;65174;48.138;21.002;2022-12-18T16:35:19;61.33;;;22.10;;
76125;SDS011;65174;48.138;21.002;2022-12-18T16:38:21;86.57;;;26.75;;
76125;SDS011;65174;48.138;21.002;2022-12-18T16:41:24;72.35;;;24.15;;
76125;SDS011;65174;48.138;21.002;2022-12-18T16:44:33;62.63;;;23.25;;
76125;SDS011;65174;48.138;21.002;2022-12-18T16:47:36;65.93;;;24.50;;
76125;SDS011;65174;48.138;21.002;2022-12-18T16:50:40;69.20;;;28.50;;
76125;SDS011;65174;48.138;21.002;2022-12-18T16:53:42;68.00;;;24.63;;
76125;SDS011;65174;48.138;21.002;2022-12-18T16:56:45;62.30;;;24.02;;
76125;SDS011;65174;48.138;21.002;2022-12-18T16:59:50;61.25;;;20.83;;
76125;SDS011;65174;48.138;21.002;2022-12-18T17:02:52;86.93;;;35.40;;
76125;SDS011;65174;48.138;21.002;2022-12-18T17:05:55;86.83;;;32.73;;
76125;SDS011;65174;48.138;21.002;2022-12-18T17:09:05;78.10;;;28.52;;
76125;SDS011;65174;48.138;21.002;2022-12-18T17:12:09;64.30;;;24.42;;
76125;SDS011;65174;48.138;21.002;2022-12-18T17:15:12;64.05;;;24.08;;
76125;SDS011;65174;48.138;21.002;2022-12-18T17:18:14;83.77;;;33.03;;
76125;SDS011;65174;48.138;21.002;2022-12-18T17:21:16;74.90;;;32.43;;
76125;SDS011;65174;48.138;21.002;2022-12-18T17:24:19;62.83;;;25.23;;
76125;SDS011;65174;48.138;21.002;2022-12-18T17:27:22;76.07;;;26.38;;
76125;SDS011;65174;48.138;21.002;2022-12-18T17:30:24;60.40;;;21.00;;
76125;SDS011;65174;48.138;21.002;2022-12-18T17:34:59;69.97;;;25.40;;
76125;SDS011;65174;48.138;21.002;2022-12-18T17:39:35;76.83;;;28.70;;
76125;SDS011;65174;48.138;21.002;2022-12-18T17:44:10;65.53;;;23.80;;
76125;SDS011;65174;48.138;21.002;2022-12-18T17:48:46;68.93;;;23.50;;
76125;SDS011;65174;48.138;21.002;2022-12-18T17:53:21;77.88;;;31.05;;
76125;SDS011;65174;48.138;21.002;2022-12-18T17:57:57;68.50;;;25.10;;
76125;SDS011;65174;48.138;21.002;2022-12-18T18:02:32;68.87;;;23.77;;
76125;SDS011;65174;48.138;21.002;2022-12-18T18:07:08;76.72;;;26.58;;
76125;SDS011;65174;48.138;21.002;2022-12-18T18:11:43;60.13;;;21.27;;
76125;SDS011;65174;48.138;21.002;2022-12-18T18:16:17;53.40;;;18.50;;
76125;SDS011;65174;48.138;21.002;2022-12-18T18:20:53;59.97;;;20.60;;
76125;SDS011;65174;48.138;21.002;2022-12-18T18:25:28;43.87;;;16.67;;
76125;SDS011;65174;48.138;21.002;2022-12-18T18:30:05;25.52;;;11.73;;
76125;SDS011;65174;48.138;21.002;2022-12-18T18:34:39;37.50;;;13.32;;
76125;SDS011;65174;48.138;21.002;2022-12-18T18:39:15;37.10;;;11.88;;
76125;SDS011;65174;48.138;21.002;2022-12-18T18:43:54;32.60;;;11.93;;
76125;SDS011;65174;48.138;21.002;2022-12-18T18:48:32;40.33;;;16.07;;
76125;SDS011;65174;48.138;21.002;2022-12-18T18:53:04;33.55;;;12.60;;
76125;SDS011;65174;48.138;21.002;2022-12-18T18:57:40;30.70;;;11.55;;
76125;SDS011;65174;48.138;21.002;2022-12-18T19:02:15;25.83;;;9.70;;
76125;SDS011;65174;48.138;21.002;2022-12-18T19:06:51;26.70;;;10.37;;
76125;SDS011;65174;48.138;21.002;2022-12-18T19:19:29;42.53;;;14.02;;
76125;SDS011;65174;48.138;21.002;2022-12-18T19:22:31;30.85;;;11.82;;
76125;SDS011;65174;48.138;21.002;2022-12-18T19:25:36;32.20;;;12.37;;
76125;SDS011;65174;48.138;21.002;2022-12-18T19:28:43;29.70;;;12.03;;
76125;SDS011;65174;48.138;21.002;2022-12-18T19:31:45;26.77;;;9.80;;
76125;SDS011;65174;48.138;21.002;2022-12-18T19:34:47;33.10;;;12.25;;
76125;SDS011;65174;48.138;21.002;2022-12-18T19:37:50;37.10;;;13.18;;
76125;SDS011;65174;48.138;21.002;2022-12-18T19:40:53;30.23;;;11.73;;
76125;SDS011;65174;48.138;21.002;2022-12-18T19:43:54;29.20;;;11.30;;
76125;SDS011;65174;48.138;21.002;2022-12-18T19:46:56;34.05;;;11.65;;
76125;SDS011;65174;48.138;21.002;2022-12-18T19:49:59;30.70;;;11.77;;
76125;SDS011;65174;48.138;21.002;2022-12-18T19:53:01;31.33;;;11.00;;
76125;SDS011;65174;48.138;21.002;2022-12-18T19:56:07;28.53;;;10.50;;
76125;SDS011;65174;48.138;21.002;2022-12-18T19:59:10;22.93;;;9.00;;
76125;SDS011;65174;48.138;21.002;2022-12-18T20:02:13;32.35;;;9.80;;
76125;SDS011;65174;48.138;21.002;2022-12-18T20:05:15;26.92;;;10.90;;
76125;SDS011;65174;48.138;21.002;2022-12-18T20:08:18;32.63;;;11.63;;
76125;SDS011;65174;48.138;21.002;2022-12-18T20:11:20;16.27;;;6.70;;
76125;SDS011;65174;48.138;21.002;2022-12-18T20:14:25;22.83;;;8.00;;
76125;SDS011;65174;48.138;21.002;2022-12-18T20:17:26;26.00;;;9.95;;
76125;SDS011;65174;48.138;21.002;2022-12-18T20:20:30;30.95;;;9.88;;
76125;SDS011;65174;48.138;21.002;2022-12-18T20:23:32;31.42;;;9.98;;
76125;SDS011;65174;48.138;21.002;2022-12-18T20:26:38;23.70;;;10.23;;
76125;SDS011;65174;48.138;21.002;2022-12-18T20:29:41;26.47;;;9.57;;
76125;SDS011;65174;48.138;21.002;2022-12-18T20:34:16;25.10;;;9.52;;
76125;SDS011;65174;48.138;21.002;2022-12-18T20:38:52;22.88;;;7.80;;
76125;SDS011;65174;48.138;21.002;2022-12-18T20:43:28;19.52;;;7.38;;
76125;SDS011;65174;48.138;21.002;2022-12-18T20:48:03;16.17;;;7.37;;
76125;SDS011;65174;48.138;21.002;2022-12-18T20:52:38;25.37;;;9.03;;
76125;SDS011;65174;48.138;21.002;2022-12-18T20:57:14;18.27;;;6.82;;
76125;SDS011;65174;48.138;21.002;2022-12-18T21:01:49;28.98;;;10.27;;
76125;SDS011;65174;48.138;21.002;2022-12-18T21:04:56;22.45;;;8.60;;
76125;SDS011;65174;48.138;21.002;2022-12-18T21:07:58;28.73;;;11.07;;
76125;SDS011;65174;48.138;21.002;2022-12-18T21:14:39;17.73;;;6.40;;
76125;SDS011;65174;48.138;21.002;2022-12-18T21:17:41;17.33;;;7.40;;
76125;SDS011;65174;48.138;21.002;2022-12-18T21:20:45;25.40;;;9.88;;
76125;SDS011;65174;48.138;21.002;2022-12-18T21:23:48;17.60;;;7.93;;
76125;SDS011;65174;48.138;21.002;2022-12-18T21:28:24;21.53;;;9.30;;
76125;SDS011;65174;48.138;21.002;2022-12-18T21:32:59;39.97;;;12.43;;
76125;SDS011;65174;48.138;21.002;2022-12-18T21:37:35;57.17;;;17.27;;
76125;SDS011;65174;48.138;21.002;2022-12-18T21:42:10;33.33;;;11.18;;
76125;SDS011;65174;48.138;21.002;2022-12-18T21:46:45;37.03;;;13.00;;
76125;SDS011;65174;48.138;21.002;2022-12-18T21:51:20;32.33;;;11.77;;
76125;SDS011;65174;48.138;21.002;2022-12-18T21:55:56;36.95;;;12.35;;
76125;SDS011;65174;48.138;21.002;2022-12-18T22:00:30;23.63;;;9.20;;
76125;SDS011;65174;48.138;21.002;2022-12-18T22:05:06;24.17;;;9.93;;
76125;SDS011;65174;48.138;21.002;2022-12-18T22:09:41;23.90;;;9.37;;
76125;SDS011;65174;48.138;21.002;2022-12-18T22:14:17;25.33;;;9.67;;
76125;SDS011;65174;48.138;21.002;2022-12-18T22:18:53;27.63;;;10.65;;
76125;SDS011;65174;48.138;21.002;2022-12-18T22:23:28;23.50;;;9.70;;
76125;SDS011;65174;48.138;21.002;2022-12-18T22:28:06;22.15;;;8.20;;
76125;SDS011;65174;48.138;21.002;2022-12-18T22:32:43;27.67;;;10.17;;
76125;SDS011;65174;48.138;21.002;2022-12-18T22:37:18;35.47;;;12.57;;
76125;SDS011;65174;48.138;21.002;2022-12-18T22:41:54;29.85;;;11.95;;
76125;SDS011;65174;48.138;21.002;2022-12-18T22:46:30;34.83;;;12.43;;
76125;SDS011;65174;48.138;21.002;2022-12-18T22:51:05;34.80;;;12.35;;
76125;SDS011;65174;48.138;21.002;2022-12-18T22:55:40;37.20;;;12.33;;
76125;SDS011;65174;48.138;21.002;2022-12-18T23:00:16;35.40;;;11.77;;
76125;SDS011;65174;48.138;21.002;2022-12-18T23:04:51;39.53;;;14.25;;
